sensor_id;sensor_type;location;lat;lon;timestamp;pressure;altitude;pressure_sealevel;temperature;humidity
74561;BME280;62979;55.720;37.606;2023-04-03T00:00:49;99472.06;;;11.46;57.43
74561;BME280;62979;55.720;37.606;2023-04-03T00:03:16;99467.78;;;11.43;57.91
74561;BME280;62979;55.720;37.606;2023-04-03T00:05:45;99477.41;;;11.43;57.87
74561;BME280;62979;55.720;37.606;2023-04-03T00:08:12;99480.88;;;11.43;57.99
74561;BME280;62979;55.720;37.606;2023-04-03T00:10:40;99438.88;;;11.20;57.98
74561;BME280;62979;55.720;37.606;2023-04-03T00:13:09;99483.63;;;11.40;58.22
74561;BME280;62979;55.720;37.606;2023-04-03T00:15:37;99468.13;;;11.34;58.61
74561;BME280;62979;55.720;37.606;2023-04-03T00:18:05;99476.03;;;11.31;58.93
74561;BME280;62979;55.720;37.606;2023-04-03T00:20:32;99482.19;;;11.30;58.48
74561;BME280;62979;55.720;37.606;2023-04-03T00:23:00;99479.53;;;11.31;57.87
74561;BME280;62979;55.720;37.606;2023-04-03T00:25:27;99468.38;;;11.25;57.18
74561;BME280;62979;55.720;37.606;2023-04-03T00:27:54;99468.38;;;11.25;57.19
74561;BME280;62979;55.720;37.606;2023-04-03T00:30:23;99475.19;;;11.30;56.74
74561;BME280;62979;55.720;37.606;2023-04-03T00:32:50;99474.38;;;11.28;56.20
74561;BME280;62979;55.720;37.606;2023-04-03T00:35:19;99482.09;;;11.33;56.04
74561;BME280;62979;55.720;37.606;2023-04-03T00:37:48;99475.09;;;11.33;55.89
74561;BME280;62979;55.720;37.606;2023-04-03T00:40:20;99469.97;;;11.29;55.64
74561;BME280;62979;55.720;37.606;2023-04-03T00:42:51;99463.16;;;11.25;55.49
74561;BME280;62979;55.720;37.606;2023-04-03T00:45:32;99476.84;;;11.33;55.64
74561;BME280;62979;55.720;37.606;2023-04-03T00:48:04;99482.19;;;11.30;55.51
74561;BME280;62979;55.720;37.606;2023-04-03T00:50:35;99479.69;;;11.27;55.75
74561;BME280;62979;55.720;37.606;2023-04-03T00:53:05;99473.88;;;11.17;55.35
74561;BME280;62979;55.720;37.606;2023-04-03T00:55:36;99464.56;;;11.07;55.43
74561;BME280;62979;55.720;37.606;2023-04-03T00:58:05;99481.88;;;11.11;55.48
74561;BME280;62979;55.720;37.606;2023-04-03T01:00:35;99470.56;;;11.10;55.59
74561;BME280;62979;55.720;37.606;2023-04-03T01:03:05;99463.69;;;11.06;55.40
74561;BME280;62979;55.720;37.606;2023-04-03T01:05:32;99475.66;;;11.15;55.54
74561;BME280;62979;55.720;37.606;2023-04-03T01:08:00;99467.00;;;11.13;55.47
74561;BME280;62979;55.720;37.606;2023-04-03T01:10:27;99470.56;;;11.10;55.25
74561;BME280;62979;55.720;37.606;2023-04-03T01:12:55;99466.44;;;11.02;55.45
74561;BME280;62979;55.720;37.606;2023-04-03T01:15:24;99467.22;;;11.05;56.19
74561;BME280;62979;55.720;37.606;2023-04-03T01:17:57;99470.66;;;11.07;55.64
74561;BME280;62979;55.720;37.606;2023-04-03T01:20:42;99477.59;;;11.08;55.94
74561;BME280;62979;55.720;37.606;2023-04-03T01:23:45;99470.69;;;11.06;55.66
74561;BME280;62979;55.720;37.606;2023-04-03T01:26:23;99475.97;;;11.04;55.46
74561;BME280;62979;55.720;37.606;2023-04-03T01:28:52;99473.34;;;11.04;55.38
74561;BME280;62979;55.720;37.606;2023-04-03T01:31:22;99472.50;;;11.04;55.76
74561;BME280;62979;55.720;37.606;2023-04-03T01:33:54;99467.41;;;10.99;55.69
74561;BME280;62979;55.720;37.606;2023-04-03T01:36:24;99464.16;;;10.91;55.30
74561;BME280;62979;55.720;37.606;2023-04-03T01:38:53;99483.88;;;11.03;55.44
74561;BME280;62979;55.720;37.606;2023-04-03T01:41:21;99482.94;;;11.05;55.39
74561;BME280;62979;55.720;37.606;2023-04-03T01:43:49;99476.06;;;11.01;55.27
74561;BME280;62979;55.720;37.606;2023-04-03T01:46:16;99484.63;;;11.06;55.42
74561;BME280;62979;55.720;37.606;2023-04-03T01:48:43;99490.72;;;11.07;55.30
74561;BME280;62979;55.720;37.606;2023-04-03T01:51:12;99478.56;;;11.06;55.31
74561;BME280;62979;55.720;37.606;2023-04-03T01:53:39;99481.19;;;11.04;55.31
74561;BME280;62979;55.720;37.606;2023-04-03T01:56:06;99483.88;;;11.03;55.79
74561;BME280;62979;55.720;37.606;2023-04-03T01:58:34;99456.47;;;10.85;55.92
74561;BME280;62979;55.720;37.606;2023-04-03T02:01:01;99470.22;;;10.93;56.01
74561;BME280;62979;55.720;37.606;2023-04-03T02:03:28;99472.72;;;10.96;56.28
74561;BME280;62979;55.720;37.606;2023-04-03T02:05:55;99474.53;;;10.94;56.29
74561;BME280;62979;55.720;37.606;2023-04-03T02:08:23;99475.38;;;10.95;56.30
74561;BME280;62979;55.720;37.606;2023-04-03T02:10:50;99477.25;;;10.91;56.34
74561;BME280;62979;55.720;37.606;2023-04-03T02:13:18;99476.31;;;10.93;56.09
74561;BME280;62979;55.720;37.606;2023-04-03T02:15:45;99476.31;;;10.93;56.41
74561;BME280;62979;55.720;37.606;2023-04-03T02:18:13;99483.28;;;10.93;56.28
74561;BME280;62979;55.720;37.606;2023-04-03T02:20:40;99474.63;;;10.91;55.86
74561;BME280;62979;55.720;37.606;2023-04-03T02:23:07;99475.47;;;10.91;55.79
74561;BME280;62979;55.720;37.606;2023-04-03T02:25:36;99477.22;;;10.92;56.14
74561;BME280;62979;55.720;37.606;2023-04-03T02:28:03;99471.31;;;10.86;55.96
74561;BME280;62979;55.720;37.606;2023-04-03T02:30:30;99461.91;;;10.79;56.06
74561;BME280;62979;55.720;37.606;2023-04-03T02:32:57;99472.94;;;10.90;56.20
74561;BME280;62979;55.720;37.606;2023-04-03T02:35:24;99475.59;;;10.88;56.01
74561;BME280;62979;55.720;37.606;2023-04-03T02:37:51;99450.72;;;10.74;56.01
74561;BME280;62979;55.720;37.606;2023-04-03T02:40:18;99480.81;;;10.88;56.12
74561;BME280;62979;55.720;37.606;2023-04-03T02:42:47;99471.41;;;10.83;56.07
74561;BME280;62979;55.720;37.606;2023-04-03T02:45:13;99475.63;;;10.87;56.03
74561;BME280;62979;55.720;37.606;2023-04-03T02:47:40;99481.75;;;10.86;56.05
74561;BME280;62979;55.720;37.606;2023-04-03T02:50:08;99482.81;;;10.80;55.96
74561;BME280;62979;55.720;37.606;2023-04-03T02:52:35;99478.50;;;10.78;56.01
74561;BME280;62979;55.720;37.606;2023-04-03T02:55:02;99469.19;;;10.67;56.08
74561;BME280;62979;55.720;37.606;2023-04-03T02:57:30;99489.03;;;10.75;56.02
74561;BME280;62979;55.720;37.606;2023-04-03T02:59:58;99473.72;;;10.62;56.13
74561;BME280;62979;55.720;37.606;2023-04-03T03:02:25;99495.31;;;10.69;56.24
74561;BME280;62979;55.720;37.606;2023-04-03T03:04:52;99488.34;;;10.68;56.25
74561;BME280;62979;55.720;37.606;2023-04-03T03:07:19;99487.50;;;10.67;56.38
74561;BME280;62979;55.720;37.606;2023-04-03T03:09:47;99493.75;;;10.63;56.50
74561;BME280;62979;55.720;37.606;2023-04-03T03:12:14;99467.19;;;10.46;56.55
74561;BME280;62979;55.720;37.606;2023-04-03T03:14:46;99484.47;;;10.52;56.69
74561;BME280;62979;55.720;37.606;2023-04-03T03:17:15;99475.09;;;10.44;56.89
74561;BME280;62979;55.720;37.606;2023-04-03T03:19:42;99499.13;;;10.57;56.67
74561;BME280;62979;55.720;37.606;2023-04-03T03:22:11;99499.22;;;10.54;56.80
74561;BME280;62979;55.720;37.606;2023-04-03T03:24:38;99510.50;;;10.56;56.88
74561;BME280;62979;55.720;37.606;2023-04-03T03:27:05;99497.59;;;10.50;56.81
74561;BME280;62979;55.720;37.606;2023-04-03T03:29:32;99503.63;;;10.52;56.92
74561;BME280;62979;55.720;37.606;2023-04-03T03:31:58;99482.97;;;10.43;56.60
74561;BME280;62979;55.720;37.606;2023-04-03T03:34:27;99494.97;;;10.50;56.57
74561;BME280;62979;55.720;37.606;2023-04-03T03:36:53;99488.09;;;10.46;56.88
74561;BME280;62979;55.720;37.606;2023-04-03T03:39:21;99501.03;;;10.50;56.82
74561;BME280;62979;55.720;37.606;2023-04-03T03:41:48;99503.63;;;10.52;56.71
74561;BME280;62979;55.720;37.606;2023-04-03T03:44:15;99499.34;;;10.49;56.62
74561;BME280;62979;55.720;37.606;2023-04-03T03:46:42;99502.72;;;10.53;56.53
74561;BME280;62979;55.720;37.606;2023-04-03T03:49:09;99496.69;;;10.51;56.42
74561;BME280;62979;55.720;37.606;2023-04-03T03:51:38;99494.97;;;10.50;56.43
74561;BME280;62979;55.720;37.606;2023-04-03T03:54:06;99490.59;;;10.50;56.59
74561;BME280;62979;55.720;37.606;2023-04-03T03:56:34;99494.22;;;10.45;56.33
74561;BME280;62979;55.720;37.606;2023-04-03T03:59:00;99496.94;;;10.42;56.62
74561;BME280;62979;55.720;37.606;2023-04-03T04:01:27;99492.78;;;10.35;56.39
74561;BME280;62979;55.720;37.606;2023-04-03T04:03:55;99490.91;;;10.40;56.42
74561;BME280;62979;55.720;37.606;2023-04-03T04:06:22;99495.22;;;10.41;56.21
74561;BME280;62979;55.720;37.606;2023-04-03T04:08:50;99503.00;;;10.44;56.25
74561;BME280;62979;55.720;37.606;2023-04-03T04:11:17;99501.50;;;10.34;56.20
74561;BME280;62979;55.720;37.606;2023-04-03T04:13:44;99513.78;;;10.32;56.59
74561;BME280;62979;55.720;37.606;2023-04-03T04:16:11;99504.19;;;10.31;56.68
74561;BME280;62979;55.720;37.606;2023-04-03T04:18:38;99502.31;;;10.36;56.69
74561;BME280;62979;55.720;37.606;2023-04-03T04:21:05;99505.72;;;10.39;56.43
74561;BME280;62979;55.720;37.606;2023-04-03T04:23:32;99503.13;;;10.39;56.64
74561;BME280;62979;55.720;37.606;2023-04-03T04:26:00;99517.75;;;10.45;56.32
74561;BME280;62979;55.720;37.606;2023-04-03T04:28:27;99510.72;;;10.48;56.54
74561;BME280;62979;55.720;37.606;2023-04-03T04:30:54;99524.53;;;10.52;56.49
74561;BME280;62979;55.720;37.606;2023-04-03T04:33:21;99521.97;;;10.50;56.14
74561;BME280;62979;55.720;37.606;2023-04-03T04:35:48;99516.13;;;10.41;55.89
74561;BME280;62979;55.720;37.606;2023-04-03T04:38:16;99529.94;;;10.46;55.93
74561;BME280;62979;55.720;37.606;2023-04-03T04:40:44;99521.09;;;10.52;55.93
74561;BME280;62979;55.720;37.606;2023-04-03T04:43:12;99520.88;;;10.59;55.96
74561;BME280;62979;55.720;37.606;2023-04-03T04:45:39;99513.75;;;10.64;55.69
74561;BME280;62979;55.720;37.606;2023-04-03T04:48:07;99501.53;;;10.65;55.30
74561;BME280;62979;55.720;37.606;2023-04-03T04:50:34;99522.06;;;10.79;55.11
74561;BME280;62979;55.720;37.606;2023-04-03T04:53:01;99518.72;;;10.74;55.30
74561;BME280;62979;55.720;37.606;2023-04-03T04:55:29;99521.72;;;10.91;55.36
74561;BME280;62979;55.720;37.606;2023-04-03T04:57:56;99527.19;;;11.13;56.81
74561;BME280;62979;55.720;37.606;2023-04-03T05:00:24;99529.78;;;11.43;56.70
74561;BME280;62979;55.720;37.606;2023-04-03T05:02:51;99518.03;;;11.56;55.87
74561;BME280;62979;55.720;37.606;2023-04-03T05:05:20;99526.00;;;11.79;55.18
74561;BME280;62979;55.720;37.606;2023-04-03T05:07:48;99513.69;;;11.83;54.40
74561;BME280;62979;55.720;37.606;2023-04-03T05:10:15;99521.44;;;11.88;54.42
74561;BME280;62979;55.720;37.606;2023-04-03T05:12:42;99516.91;;;11.93;54.02
74561;BME280;62979;55.720;37.606;2023-04-03T05:15:10;99525.25;;;12.04;53.92
74561;BME280;62979;55.720;37.606;2023-04-03T05:17:38;99525.94;;;12.09;54.46
74561;BME280;62979;55.720;37.606;2023-04-03T05:20:06;99529.34;;;12.13;54.19
74561;BME280;62979;55.720;37.606;2023-04-03T05:22:34;99526.41;;;12.22;53.86
74561;BME280;62979;55.720;37.606;2023-04-03T05:25:01;99522.72;;;12.28;53.11
74561;BME280;62979;55.720;37.606;2023-04-03T05:27:28;99523.28;;;12.36;52.82
74561;BME280;62979;55.720;37.606;2023-04-03T05:29:55;99519.69;;;12.38;52.70
74561;BME280;62979;55.720;37.606;2023-04-03T05:32:23;99524.06;;;12.39;52.46
74561;BME280;62979;55.720;37.606;2023-04-03T05:34:53;99526.72;;;12.38;51.86
74561;BME280;62979;55.720;37.606;2023-04-03T05:37:20;99522.25;;;12.41;52.23
74561;BME280;62979;55.720;37.606;2023-04-03T05:39:47;99533.47;;;12.45;52.19
74561;BME280;62979;55.720;37.606;2023-04-03T05:42:14;99538.75;;;12.43;52.17
74561;BME280;62979;55.720;37.606;2023-04-03T05:44:41;99522.13;;;12.45;51.74
74561;BME280;62979;55.720;37.606;2023-04-03T05:47:08;99533.34;;;12.48;51.82
74561;BME280;62979;55.720;37.606;2023-04-03T05:49:35;99538.75;;;12.43;52.18
74561;BME280;62979;55.720;37.606;2023-04-03T05:52:11;99540.53;;;12.43;51.84
74561;BME280;62979;55.720;37.606;2023-04-03T05:54:46;99534.44;;;12.42;51.64
74561;BME280;62979;55.720;37.606;2023-04-03T05:57:13;99546.53;;;12.47;51.87
74561;BME280;62979;55.720;37.606;2023-04-03T05:59:41;99542.09;;;12.49;51.29
74561;BME280;62979;55.720;37.606;2023-04-03T06:02:12;99527.41;;;12.43;51.36
74561;BME280;62979;55.720;37.606;2023-04-03T06:04:41;99543.00;;;12.48;51.29
74561;BME280;62979;55.720;37.606;2023-04-03T06:07:12;99530.84;;;12.20;50.48
74561;BME280;62979;55.720;37.606;2023-04-03T06:09:41;99563.00;;;12.25;51.23
74561;BME280;62979;55.720;37.606;2023-04-03T06:12:09;99561.78;;;12.09;52.15
74561;BME280;62979;55.720;37.606;2023-04-03T06:14:36;99559.72;;;11.92;51.59
74561;BME280;62979;55.720;37.606;2023-04-03T06:17:04;99569.22;;;11.94;51.87
74561;BME280;62979;55.720;37.606;2023-04-03T06:19:31;99572.56;;;11.99;52.30
74561;BME280;62979;55.720;37.606;2023-04-03T06:21:58;99575.72;;;12.11;51.92
74561;BME280;62979;55.720;37.606;2023-04-03T06:24:27;99573.59;;;12.22;52.18
74561;BME280;62979;55.720;37.606;2023-04-03T06:26:54;99540.72;;;12.12;51.71
74561;BME280;62979;55.720;37.606;2023-04-03T06:29:21;99557.31;;;12.39;51.56
74561;BME280;62979;55.720;37.606;2023-04-03T06:31:49;99562.06;;;12.53;51.19
74561;BME280;62979;55.720;37.606;2023-04-03T06:34:16;99570.41;;;12.64;51.00
74561;BME280;62979;55.720;37.606;2023-04-03T06:36:44;99549.38;;;12.66;51.05
74561;BME280;62979;55.720;37.606;2023-04-03T06:39:11;99559.44;;;12.78;50.83
74561;BME280;62979;55.720;37.606;2023-04-03T06:41:42;99567.25;;;12.79;50.89
74561;BME280;62979;55.720;37.606;2023-04-03T06:44:09;99528.47;;;12.62;50.94
74561;BME280;62979;55.720;37.606;2023-04-03T06:46:39;99555.63;;;12.87;50.41
74561;BME280;62979;55.720;37.606;2023-04-03T06:49:05;99543.41;;;12.85;50.65
74561;BME280;62979;55.720;37.606;2023-04-03T06:51:33;99566.28;;;13.07;50.21
74561;BME280;62979;55.720;37.606;2023-04-03T06:54:01;99563.41;;;13.13;49.85
74561;BME280;62979;55.720;37.606;2023-04-03T06:56:29;99568.00;;;13.32;49.77
74561;BME280;62979;55.720;37.606;2023-04-03T06:58:58;99562.38;;;13.41;49.29
74561;BME280;62979;55.720;37.606;2023-04-03T07:01:26;99565.59;;;13.49;49.03
74561;BME280;62979;55.720;37.606;2023-04-03T07:03:55;99569.03;;;13.51;48.72
74561;BME280;62979;55.720;37.606;2023-04-03T07:06:22;99571.34;;;13.59;48.41
74561;BME280;62979;55.720;37.606;2023-04-03T07:08:52;99558.94;;;13.62;48.22
74561;BME280;62979;55.720;37.606;2023-04-03T07:11:20;99554.00;;;13.77;48.14
74561;BME280;62979;55.720;37.606;2023-04-03T07:13:47;99560.47;;;13.90;47.30
74561;BME280;62979;55.720;37.606;2023-04-03T07:16:16;99564.00;;;13.89;47.33
74561;BME280;62979;55.720;37.606;2023-04-03T07:18:43;99568.25;;;13.93;47.54
74561;BME280;62979;55.720;37.606;2023-04-03T07:21:10;99570.50;;;14.02;47.26
74561;BME280;62979;55.720;37.606;2023-04-03T07:23:38;99563.69;;;13.97;47.05
74561;BME280;62979;55.720;37.606;2023-04-03T07:26:05;99566.31;;;14.19;46.95
74561;BME280;62979;55.720;37.606;2023-04-03T07:28:33;99554.75;;;14.23;46.46
74561;BME280;62979;55.720;37.606;2023-04-03T07:31:01;99562.97;;;14.35;46.20
74561;BME280;62979;55.720;37.606;2023-04-03T07:33:31;99574.53;;;14.53;45.92
74561;BME280;62979;55.720;37.606;2023-04-03T07:35:59;99567.16;;;14.62;45.37
74561;BME280;62979;55.720;37.606;2023-04-03T07:38:26;99571.25;;;14.69;45.12
74561;BME280;62979;55.720;37.606;2023-04-03T07:40:53;99566.72;;;14.50;45.50
74561;BME280;62979;55.720;37.606;2023-04-03T07:43:21;99572.22;;;14.66;44.71
74561;BME280;62979;55.720;37.606;2023-04-03T07:45:50;99568.72;;;14.86;44.70
74561;BME280;62979;55.720;37.606;2023-04-03T07:48:18;99548.72;;;14.82;44.32
74561;BME280;62979;55.720;37.606;2023-04-03T07:50:48;99579.38;;;15.04;44.23
74561;BME280;62979;55.720;37.606;2023-04-03T07:53:15;99573.88;;;15.08;44.29
74561;BME280;62979;55.720;37.606;2023-04-03T07:55:43;99570.66;;;15.22;43.90
74561;BME280;62979;55.720;37.606;2023-04-03T07:58:12;99565.06;;;15.28;43.61
74561;BME280;62979;55.720;37.606;2023-04-03T08:00:42;99556.03;;;15.15;43.46
74561;BME280;62979;55.720;37.606;2023-04-03T08:03:10;99565.06;;;15.28;43.74
74561;BME280;62979;55.720;37.606;2023-04-03T08:05:37;99560.22;;;15.19;44.10
74561;BME280;62979;55.720;37.606;2023-04-03T08:08:07;99554.25;;;15.15;43.62
74561;BME280;62979;55.720;37.606;2023-04-03T08:10:35;99570.75;;;15.19;44.62
74561;BME280;62979;55.720;37.606;2023-04-03T08:13:03;99570.66;;;15.22;43.93
74561;BME280;62979;55.720;37.606;2023-04-03T08:15:31;99572.56;;;15.37;43.38
74561;BME280;62979;55.720;37.606;2023-04-03T08:17:59;99570.50;;;15.44;43.26
74561;BME280;62979;55.720;37.606;2023-04-03T08:20:26;99563.03;;;15.54;43.27
74561;BME280;62979;55.720;37.606;2023-04-03T08:22:53;99562.94;;;15.55;43.12
74561;BME280;62979;55.720;37.606;2023-04-03T08:25:22;99572.06;;;15.67;42.99
74561;BME280;62979;55.720;37.606;2023-04-03T08:27:49;99570.09;;;15.53;42.46
74561;BME280;62979;55.720;37.606;2023-04-03T08:30:16;99574.06;;;15.62;43.07
74561;BME280;62979;55.720;37.606;2023-04-03T08:32:43;99577.31;;;15.67;42.90
74561;BME280;62979;55.720;37.606;2023-04-03T08:35:11;99564.03;;;15.70;43.15
74561;BME280;62979;55.720;37.606;2023-04-03T08:37:39;99574.78;;;15.66;42.54
74561;BME280;62979;55.720;37.606;2023-04-03T08:40:10;99573.50;;;15.74;43.18
74561;BME280;62979;55.720;37.606;2023-04-03T08:42:51;99577.72;;;15.78;42.42
74561;BME280;62979;55.720;37.606;2023-04-03T08:45:37;99581.78;;;15.86;42.47
74561;BME280;62979;55.720;37.606;2023-04-03T08:48:13;99579.59;;;15.94;42.95
74561;BME280;62979;55.720;37.606;2023-04-03T08:50:48;99572.72;;;16.09;42.24
74561;BME280;62979;55.720;37.606;2023-04-03T08:53:23;99587.41;;;16.14;42.49
74561;BME280;62979;55.720;37.606;2023-04-03T08:55:55;99574.34;;;16.11;42.12
74561;BME280;62979;55.720;37.606;2023-04-03T08:58:26;99589.50;;;16.25;42.04
74561;BME280;62979;55.720;37.606;2023-04-03T09:00:57;99594.56;;;16.30;41.67
74561;BME280;62979;55.720;37.606;2023-04-03T09:03:30;99593.63;;;16.31;41.47
74561;BME280;62979;55.720;37.606;2023-04-03T09:06:02;99595.47;;;16.29;41.97
74561;BME280;62979;55.720;37.606;2023-04-03T09:08:34;99601.53;;;16.31;42.01
74561;BME280;62979;55.720;37.606;2023-04-03T09:11:14;99585.41;;;16.19;41.61
74561;BME280;62979;55.720;37.606;2023-04-03T09:13:51;99592.31;;;16.39;42.12
74561;BME280;62979;55.720;37.606;2023-04-03T09:16:36;99603.97;;;16.53;42.00
74561;BME280;62979;55.720;37.606;2023-04-03T09:19:18;99604.91;;;16.69;41.58
74561;BME280;62979;55.720;37.606;2023-04-03T09:21:52;99611.38;;;16.81;41.18
74561;BME280;62979;55.720;37.606;2023-04-03T09:24:23;99612.66;;;16.72;41.58
74561;BME280;62979;55.720;37.606;2023-04-03T09:26:53;99611.50;;;16.78;40.89
74561;BME280;62979;55.720;37.606;2023-04-03T09:29:27;99609.78;;;16.59;41.05
74561;BME280;62979;55.720;37.606;2023-04-03T09:31:57;99607.47;;;16.71;41.18
74561;BME280;62979;55.720;37.606;2023-04-03T09:34:28;99608.56;;;16.84;40.89
74561;BME280;62979;55.720;37.606;2023-04-03T09:37:00;99605.47;;;16.93;40.19
74561;BME280;62979;55.720;37.606;2023-04-03T09:39:32;99606.53;;;16.89;40.25
74561;BME280;62979;55.720;37.606;2023-04-03T09:42:19;99610.50;;;16.98;40.01
74561;BME280;62979;55.720;37.606;2023-04-03T09:44:53;99606.84;;;17.00;40.30
74561;BME280;62979;55.720;37.606;2023-04-03T09:47:25;99606.06;;;16.98;40.18
74561;BME280;62979;55.720;37.606;2023-04-03T09:50:15;99596.88;;;17.05;40.41
74561;BME280;62979;55.720;37.606;2023-04-03T09:52:48;99611.16;;;17.19;40.46
74561;BME280;62979;55.720;37.606;2023-04-03T09:55:20;99599.72;;;17.18;39.66
74561;BME280;62979;55.720;37.606;2023-04-03T09:57:52;99600.13;;;17.10;40.23
74561;BME280;62979;55.720;37.606;2023-04-03T10:00:23;99619.03;;;17.03;39.31
74561;BME280;62979;55.720;37.606;2023-04-03T10:02:55;99619.22;;;17.00;39.52
74561;BME280;62979;55.720;37.606;2023-04-03T10:05:32;99603.00;;;16.90;39.24
74561;BME280;62979;55.720;37.606;2023-04-03T10:08:10;99607.16;;;16.94;39.64
74561;BME280;62979;55.720;37.606;2023-04-03T10:10:47;99606.91;;;16.99;39.30
74561;BME280;62979;55.720;37.606;2023-04-03T10:13:30;99606.91;;;16.99;38.96
74561;BME280;62979;55.720;37.606;2023-04-03T10:16:00;99613.59;;;17.06;38.85
74561;BME280;62979;55.720;37.606;2023-04-03T10:18:35;99620.50;;;17.08;38.83
74561;BME280;62979;55.720;37.606;2023-04-03T10:21:11;99621.09;;;17.14;38.87
74561;BME280;62979;55.720;37.606;2023-04-03T10:23:45;99618.34;;;16.99;37.62
74561;BME280;62979;55.720;37.606;2023-04-03T10:26:26;99615.06;;;16.94;38.41
74561;BME280;62979;55.720;37.606;2023-04-03T10:29:09;99625.19;;;16.86;38.39
74561;BME280;62979;55.720;37.606;2023-04-03T10:31:53;99622.56;;;16.86;38.69
74561;BME280;62979;55.720;37.606;2023-04-03T10:34:30;99626.03;;;16.86;38.85
74561;BME280;62979;55.720;37.606;2023-04-03T10:37:09;99621.78;;;16.84;38.61
74561;BME280;62979;55.720;37.606;2023-04-03T10:39:48;99608.00;;;16.77;38.65
74561;BME280;62979;55.720;37.606;2023-04-03T10:42:26;99628.53;;;16.89;38.78
74561;BME280;62979;55.720;37.606;2023-04-03T10:45:15;99625.81;;;16.91;38.28
74561;BME280;62979;55.720;37.606;2023-04-03T10:48:00;99606.88;;;16.83;38.50
74561;BME280;62979;55.720;37.606;2023-04-03T10:50:39;99626.13;;;17.02;37.79
74561;BME280;62979;55.720;37.606;2023-04-03T10:53:22;99636.19;;;17.11;38.06
74561;BME280;62979;55.720;37.606;2023-04-03T10:56:02;99625.91;;;17.23;37.78
74561;BME280;62979;55.720;37.606;2023-04-03T10:58:40;99624.97;;;17.24;38.13
74561;BME280;62979;55.720;37.606;2023-04-03T11:01:14;99628.63;;;17.21;38.12
74561;BME280;62979;55.720;37.606;2023-04-03T11:03:49;99632.81;;;17.25;37.99
74561;BME280;62979;55.720;37.606;2023-04-03T11:06:23;99631.81;;;17.28;38.23
74561;BME280;62979;55.720;37.606;2023-04-03T11:08:56;99622.53;;;17.37;38.03
74561;BME280;62979;55.720;37.606;2023-04-03T11:11:31;99614.09;;;17.30;38.60
74561;BME280;62979;55.720;37.606;2023-04-03T11:14:02;99615.63;;;17.34;38.36
74561;BME280;62979;55.720;37.606;2023-04-03T11:16:36;99617.69;;;17.45;38.14
74561;BME280;62979;55.720;37.606;2023-04-03T11:19:15;99627.41;;;17.44;38.20
74561;BME280;62979;55.720;37.606;2023-04-03T11:21:51;99619.00;;;17.53;38.02
74561;BME280;62979;55.720;37.606;2023-04-03T11:24:25;99619.41;;;17.62;37.91
74561;BME280;62979;55.720;37.606;2023-04-03T11:26:57;99603.97;;;17.70;38.04
74561;BME280;62979;55.720;37.606;2023-04-03T11:29:29;99618.34;;;17.82;37.44
74561;BME280;62979;55.720;37.606;2023-04-03T11:32:06;99607.75;;;17.66;38.11
74561;BME280;62979;55.720;37.606;2023-04-03T11:34:45;99613.56;;;17.88;37.67
74561;BME280;62979;55.720;37.606;2023-04-03T11:37:21;99608.03;;;17.93;37.76
74561;BME280;62979;55.720;37.606;2023-04-03T11:39:58;99612.69;;;18.04;37.03
74561;BME280;62979;55.720;37.606;2023-04-03T11:42:33;99611.16;;;18.15;36.99
74561;BME280;62979;55.720;37.606;2023-04-03T11:48:43;99601.59;;;18.13;37.03
74561;BME280;62979;55.720;37.606;2023-04-03T11:51:53;99605.94;;;18.14;37.10
74561;BME280;62979;55.720;37.606;2023-04-03T11:54:46;99608.81;;;17.95;37.33
74561;BME280;62979;55.720;37.606;2023-04-03T11:57:47;99602.09;;;17.72;37.51
74561;BME280;62979;55.720;37.606;2023-04-03T12:00:53;99599.53;;;17.54;37.97
74561;BME280;62979;55.720;37.606;2023-04-03T12:04:05;99609.75;;;17.45;38.73
74561;BME280;62979;55.720;37.606;2023-04-03T12:07:00;99606.56;;;17.22;38.25
74561;BME280;62979;55.720;37.606;2023-04-03T12:10:15;99614.31;;;17.09;39.70
74561;BME280;62979;55.720;37.606;2023-04-03T12:12:56;99614.00;;;16.98;39.39
74561;BME280;62979;55.720;37.606;2023-04-03T12:15:54;99612.19;;;16.99;38.88
74561;BME280;62979;55.720;37.606;2023-04-03T12:18:55;99601.94;;;16.75;38.80
74561;BME280;62979;55.720;37.606;2023-04-03T12:24:47;99613.06;;;16.64;38.86
74561;BME280;62979;55.720;37.606;2023-04-03T12:27:24;99604.59;;;16.58;38.86
74561;BME280;62979;55.720;37.606;2023-04-03T12:29:59;99609.97;;;16.56;38.70
74561;BME280;62979;55.720;37.606;2023-04-03T12:32:40;99613.50;;;16.55;38.84
74561;BME280;62979;55.720;37.606;2023-04-03T12:35:20;99593.63;;;16.31;38.80
74561;BME280;62979;55.720;37.606;2023-04-03T12:38:17;99602.31;;;16.33;39.14
74561;BME280;62979;55.720;37.606;2023-04-03T12:41:18;99607.59;;;16.33;39.24
74561;BME280;62979;55.720;37.606;2023-04-03T12:44:13;99608.63;;;16.30;39.11
74561;BME280;62979;55.720;37.606;2023-04-03T12:46:52;99605.41;;;16.23;39.33
74561;BME280;62979;55.720;37.606;2023-04-03T12:49:35;99615.19;;;16.21;39.62
74561;BME280;62979;55.720;37.606;2023-04-03T12:52:05;99612.22;;;16.10;39.52
74561;BME280;62979;55.720;37.606;2023-04-03T12:54:47;99619.78;;;15.99;40.61
74561;BME280;62979;55.720;37.606;2023-04-03T12:57:18;99623.28;;;15.99;40.33
74561;BME280;62979;55.720;37.606;2023-04-03T12:59:46;99621.09;;;15.90;40.54
74561;BME280;62979;55.720;37.606;2023-04-03T13:02:21;99621.16;;;15.89;40.37
74561;BME280;62979;55.720;37.606;2023-04-03T13:04:51;99618.81;;;15.82;40.39
74561;BME280;62979;55.720;37.606;2023-04-03T13:07:24;99597.84;;;15.60;40.72
74561;BME280;62979;55.720;37.606;2023-04-03T13:10:04;99607.41;;;15.63;40.92
74561;BME280;62979;55.720;37.606;2023-04-03T13:12:48;99630.72;;;15.53;41.15
74561;BME280;62979;55.720;37.606;2023-04-03T13:15:19;99625.88;;;15.63;41.24
74561;BME280;62979;55.720;37.606;2023-04-03T13:17:48;99618.94;;;15.60;41.39
74561;BME280;62979;55.720;37.606;2023-04-03T13:20:20;99625.09;;;15.61;41.40